Time;durP1;ratioP1;P1;durP2;ratioP2;P2;SDS_P1;SDS_P2;PMS_P1;PMS_P2;Temp;Humidity;BMP_temperature;BMP_pressure;BME280_temperature;BME280_humidity;BME280_pressure;Samples;Min_cycle;Max_cycle;Signal;HPM_P1;HPM_P2
2021/08/05 00:12:47;;;;;;;8.73;7.27;;;;;;;15.36;100.00;100252.61;715889;1204;115139;-78
2021/08/05 00:27:50;;;;;;;7.90;5.48;;;;;;;15.01;100.00;100247.52;714700;1178;114256;-77
2021/08/05 00:42:53;;;;;;;7.03;5.53;;;;;;;14.93;100.00;100250.17;715950;1200;115202;-78
2021/08/05 00:57:56;;;;;;;10.05;6.95;;;;;;;14.80;100.00;100242.72;714609;1200;114128;-77
2021/08/05 01:13:13;;;;;;;10.23;7.05;;;;;;;14.64;100.00;100217.95;714031;1200;115131;-78
2021/08/05 01:28:16;;;;;;;16.25;9.65;;;;;;;14.48;100.00;100216.08;714692;1200;115512;-77
2021/08/05 01:43:20;;;;;;;17.53;10.07;;;;;;;14.26;100.00;100219.34;714699;1200;115503;-76
2021/08/05 01:58:22;;;;;;;13.47;8.70;;;;;;;14.17;100.00;100220.30;714428;1200;115640;-78
2021/08/05 02:13:34;;;;;;;9.00;6.60;;;;;;;14.12;100.00;100218.97;714399;1183;114038;-78
2021/08/05 02:28:37;;;;;;;9.77;8.10;;;;;;;13.85;100.00;100213.92;714594;1200;114641;-77
2021/08/05 02:43:40;;;;;;;7.70;5.80;;;;;;;13.68;100.00;100207.75;714537;1200;114145;-77
2021/08/05 02:58:43;;;;;;;7.68;5.80;;;;;;;13.44;100.00;100219.81;714723;1200;113808;-77
2021/08/05 03:13:46;;;;;;;7.20;5.83;;;;;;;13.27;100.00;100208.30;714588;1190;113663;-77
2021/08/05 03:28:48;;;;;;;6.33;5.37;;;;;;;13.14;100.00;100214.81;714559;1200;115219;-77
2021/08/05 03:43:50;;;;;;;8.05;6.20;;;;;;;13.21;100.00;100214.18;714428;1202;114495;-77
2021/08/05 03:58:52;;;;;;;9.63;5.78;;;;;;;13.29;100.00;100214.27;714631;1177;114139;-76
2021/08/05 04:13:54;;;;;;;7.63;6.07;;;;;;;13.56;100.00;100205.38;714841;1200;113948;-77
2021/08/05 04:28:57;;;;;;;9.27;7.07;;;;;;;13.84;100.00;100209.63;714828;1202;113787;-79
2021/08/05 04:43:59;;;;;;;12.28;5.98;;;;;;;14.27;100.00;100184.06;716426;1202;114847;-81
2021/08/05 04:59:02;;;;;;;9.55;5.53;;;;;;;14.78;100.00;100184.80;715592;1200;114603;-78
2021/08/05 05:14:04;;;;;;;8.57;5.27;;;;;;;15.54;100.00;100183.69;715380;1200;114838;-81
2021/08/05 05:29:07;;;;;;;8.28;4.90;;;;;;;16.16;100.00;100182.95;715530;1200;114611;-86
2021/08/05 05:44:09;;;;;;;6.80;3.73;;;;;;;17.11;100.00;100167.69;717032;1200;115003;-81
2021/08/05 05:59:11;;;;;;;9.83;3.47;;;;;;;18.02;100.00;100166.66;719221;1200;114697;-79
2021/08/05 06:14:13;;;;;;;3.63;3.00;;;;;;;18.71;100.00;100155.47;716374;1202;113933;-89
2021/08/05 06:29:16;;;;;;;6.20;3.33;;;;;;;20.05;100.00;100158.13;717136;1200;114647;-90
2021/08/05 06:44:18;;;;;;;6.03;3.80;;;;;;;20.58;100.00;100152.05;716889;1200;113800;-90
2021/08/05 06:59:22;;;;;;;4.48;2.45;;;;;;;21.33;100.00;100157.13;716656;1180;113736;-89
2021/08/05 07:14:25;;;;;;;2.60;1.73;;;;;;;22.16;93.49;100158.25;716791;1200;114145;-78
2021/08/05 07:29:29;;;;;;;2.43;1.90;;;;;;;23.13;88.07;100153.59;716028;1177;114055;-78
2021/08/05 07:44:31;;;;;;;2.88;1.88;;;;;;;24.01;82.62;100135.52;717486;1200;114073;-79
2021/08/05 07:59:33;;;;;;;3.55;1.80;;;;;;;24.93;78.08;100134.28;715770;1200;114748;-81
2021/08/05 08:14:35;;;;;;;2.17;1.17;;;;;;;25.87;72.87;100124.39;717061;1200;113700;-82
2021/08/05 08:29:38;;;;;;;2.30;1.50;;;;;;;25.89;66.29;100116.89;717718;1200;113618;-80
2021/08/05 08:44:40;;;;;;;3.90;2.40;;;;;;;26.31;65.67;100091.56;716334;1202;113688;-80
2021/08/05 08:59:45;;;;;;;3.45;2.00;;;;;;;27.20;64.25;100097.94;716130;1200;114179;-80
2021/08/05 09:14:53;;;;;;;3.23;1.63;;;;;;;27.61;60.15;100090.38;717178;1200;114723;-80
2021/08/05 09:29:56;;;;;;;2.23;1.70;;;;;;;28.33;57.92;100076.75;716898;1200;113474;-80
2021/08/05 09:45:00;;;;;;;3.43;1.40;;;;;;;28.37;55.20;100050.89;716679;1200;114307;-80
2021/08/05 10:00:08;;;;;;;3.63;1.50;;;;;;;29.13;53.81;100057.80;716857;1200;115502;-80
2021/08/05 10:15:13;;;;;;;2.15;1.43;;;;;;;28.47;53.90;100033.97;716374;1200;114396;-78
2021/08/05 10:30:17;;;;;;;1.73;1.50;;;;;;;28.06;54.28;100032.61;716754;1200;113863;-81
2021/08/05 10:45:21;;;;;;;4.63;1.70;;;;;;;29.22;52.99;100006.80;716722;1199;114715;-81
2021/08/05 11:00:24;;;;;;;2.30;1.50;;;;;;;29.60;51.85;100010.10;716937;1200;114828;-82
2021/08/05 11:15:27;;;;;;;3.10;1.50;;;;;;;30.43;51.93;99989.23;716679;1200;113756;-78
2021/08/05 11:30:53;;;;;;;5.48;1.88;;;;;;;30.84;51.32;99972.89;716310;1200;114895;-78
2021/08/05 11:46:20;;;;;;;3.70;1.53;;;;;;;30.40;49.42;99964.64;724483;1200;113493;-80
2021/08/05 12:01:23;;;;;;;2.05;1.70;;;;;;;29.00;49.74;99955.70;728089;1182;113514;-78
2021/08/05 12:16:26;;;;;;;2.30;1.65;;;;;;;27.66;50.27;99942.27;716985;1198;113705;-79
2021/08/05 12:31:29;;;;;;;2.57;1.80;;;;;;;27.46;51.40;99934.02;715891;1178;114071;-79
2021/08/05 12:46:33;;;;;;;3.15;1.85;;;;;;;27.03;51.55;99913.13;717862;1199;114552;-79
2021/08/05 13:01:36;;;;;;;1.80;1.60;;;;;;;26.83;51.67;99889.52;717374;1200;114289;-77
2021/08/05 13:16:40;;;;;;;5.18;2.00;;;;;;;26.64;52.76;99885.50;716902;1176;113540;-83
2021/08/05 13:31:58;;;;;;;5.33;2.00;;;;;;;26.59;52.71;99872.80;717143;1191;114369;-83
2021/08/05 13:47:01;;;;;;;10.40;6.07;;;;;;;26.67;52.83;99847.33;717190;1202;114648;-81
2021/08/05 14:02:05;;;;;;;4.03;1.60;;;;;;;26.76;52.52;99839.66;717538;1200;113884;-78
2021/08/05 14:17:09;;;;;;;3.10;2.13;;;;;;;26.97;52.11;99829.91;715924;1202;113690;-77
2021/08/05 14:32:12;;;;;;;3.60;1.90;;;;;;;30.51;48.83;99802.03;715331;1178;114010;-74
2021/08/05 14:47:14;;;;;;;2.33;1.48;;;;;;;31.25;43.82;99789.56;714758;1181;115521;-75
2021/08/05 15:02:17;;;;;;;4.65;1.45;;;;;;;28.51;47.68;99773.42;715479;1178;113959;-78
2021/08/05 15:17:20;;;;;;;10.75;4.35;;;;;;;27.17;49.11;99768.16;715503;1200;114295;-76
2021/08/05 15:32:23;;;;;;;3.88;2.40;;;;;;;26.40;51.76;99745.95;726309;1203;113632;-79
2021/08/05 15:47:25;;;;;;;2.58;1.93;;;;;;;26.31;52.83;99732.14;715208;1202;115598;-76
2021/08/05 16:02:28;;;;;;;6.85;4.85;;;;;;;25.60;54.42;99713.29;715415;1205;113672;-75
2021/08/05 16:17:31;;;;;;;10.43;7.97;;;;;;;25.00;55.88;99703.03;715016;1200;114601;-75
2021/08/05 16:32:33;;;;;;;7.28;4.70;;;;;;;24.40;57.79;99715.97;714505;1200;114729;-74
2021/08/05 16:47:35;;;;;;;5.88;2.70;;;;;;;24.00;59.92;99708.77;714804;1177;113533;-74
2021/08/05 17:02:38;;;;;;;3.70;2.80;;;;;;;23.80;60.91;99706.48;715512;1200;114412;-73
2021/08/05 17:17:41;;;;;;;21.10;5.63;;;;;;;23.74;62.32;99700.21;714945;1200;114388;-74
2021/08/05 17:32:44;;;;;;;9.13;3.35;;;;;;;23.52;62.90;99693.86;714415;1200;115344;-74
2021/08/05 17:47:46;;;;;;;4.93;2.40;;;;;;;23.06;63.62;99697.09;714786;1202;113951;-75
2021/08/05 18:02:50;;;;;;;5.78;3.15;;;;;;;22.76;64.14;99703.36;714784;1200;114108;-74
2021/08/05 18:17:53;;;;;;;14.00;7.03;;;;;;;22.38;66.00;99696.52;714398;1178;113480;-76
2021/08/05 18:32:56;;;;;;;27.15;12.03;;;;;;;22.07;67.51;99682.30;714520;1204;115096;-73
2021/08/05 18:47:59;;;;;;;30.70;17.13;;;;;;;21.85;67.30;99662.47;714673;1188;114398;-73
2021/08/05 19:03:02;;;;;;;17.75;10.95;;;;;;;21.49;67.74;99664.90;715084;1177;114427;-74
2021/08/05 19:18:06;;;;;;;14.38;8.80;;;;;;;21.14;68.44;99648.65;714982;1200;114332;-74
2021/08/05 19:33:13;;;;;;;36.45;20.70;;;;;;;20.86;69.51;99625.94;714868;1200;113911;-74
2021/08/05 19:48:15;;;;;;;24.00;13.93;;;;;;;20.72;70.58;99606.57;714205;1203;114724;-74
2021/08/05 20:03:18;;;;;;;17.68;9.25;;;;;;;20.56;72.17;99594.59;713940;1200;114743;-75
2021/08/05 20:18:22;;;;;;;8.50;5.50;;;;;;;20.40;73.53;99575.47;713903;1189;113680;-76
2021/08/05 20:33:24;;;;;;;15.00;4.30;;;;;;;20.17;75.41;99556.59;713958;1185;113605;-76
2021/08/05 20:48:26;;;;;;;4.55;3.30;;;;;;;19.84;78.07;99533.68;714634;1202;115545;-75
2021/08/05 21:03:30;;;;;;;5.50;3.67;;;;;;;19.59;79.89;99516.58;714397;1200;114755;-75
2021/08/05 21:18:33;;;;;;;6.03;4.20;;;;;;;19.27;82.44;99524.51;714268;1200;114098;-75
2021/08/05 21:33:36;;;;;;;8.50;4.43;;;;;;;18.99;85.51;99516.85;714473;1205;115038;-75
2021/08/05 21:48:38;;;;;;;6.58;4.38;;;;;;;18.89;86.54;99505.84;713860;1180;114130;-75
2021/08/05 22:03:40;;;;;;;5.43;3.35;;;;;;;18.85;88.33;99478.83;713799;1205;113652;-74
2021/08/05 22:18:43;;;;;;;5.28;3.45;;;;;;;18.93;89.09;99499.08;713756;1200;114120;-75
2021/08/05 22:33:48;;;;;;;4.05;2.93;;;;;;;18.84;89.42;99476.39;714563;1203;113770;-75
2021/08/05 22:48:50;;;;;;;4.30;2.68;;;;;;;18.56;90.38;99464.20;714257;1202;114156;-75
2021/08/05 23:03:52;;;;;;;6.38;2.90;;;;;;;18.44;92.06;99461.36;714808;1202;113675;-76
2021/08/05 23:18:54;;;;;;;3.70;2.60;;;;;;;18.38;92.35;99446.25;714903;1200;113895;-76
2021/08/05 23:33:56;;;;;;;3.80;2.63;;;;;;;18.28;93.56;99412.17;714144;1203;115035;-74
2021/08/05 23:48:59;;;;;;;5.03;2.67;;;;;;;18.32;93.11;99393.97;715107;1199;114209;-75
